createdAt,value
2018-12-12T00:00:03.136Z,14.00
2018-12-12T00:01:03.081Z,14.20
2018-12-12T00:02:03.028Z,14.30
2018-12-12T00:03:02.975Z,14.50
2018-12-12T00:04:02.916Z,13.70
2018-12-12T00:05:02.871Z,15.10
2018-12-12T00:06:02.835Z,14.40
2018-12-12T00:07:02.756Z,15.00
2018-12-12T00:08:02.873Z,14.50
2018-12-12T00:09:02.647Z,14.70
2018-12-12T00:10:02.591Z,14.50
2018-12-12T00:11:02.540Z,14.70
2018-12-12T00:12:02.487Z,15.20
2018-12-12T00:13:02.432Z,14.50
2018-12-12T00:14:02.375Z,14.00
2018-12-12T00:15:02.342Z,14.10
2018-12-12T00:16:02.268Z,14.50
2018-12-12T00:17:02.394Z,15.00
2018-12-12T00:18:02.156Z,14.60
2018-12-12T00:19:02.105Z,14.50
2018-12-12T00:20:02.074Z,13.70
2018-12-12T00:21:01.999Z,14.10
2018-12-12T00:22:01.941Z,13.70
2018-12-12T00:23:01.888Z,14.10
2018-12-12T00:24:01.855Z,14.60
2018-12-12T00:25:01.779Z,13.50
2018-12-12T00:26:01.890Z,13.60
2018-12-12T00:27:01.668Z,13.60
2018-12-12T00:28:01.620Z,14.00
2018-12-12T00:29:01.562Z,16.10
2018-12-12T00:30:01.507Z,14.70
2018-12-12T00:31:01.453Z,15.00
2018-12-12T00:32:01.401Z,14.40
2018-12-12T00:33:01.368Z,14.00
2018-12-12T00:34:01.290Z,15.40
2018-12-12T00:35:01.396Z,14.70
2018-12-12T00:36:01.183Z,14.90
2018-12-12T00:37:01.126Z,15.40
2018-12-12T00:38:01.072Z,14.10
2018-12-12T00:39:01.020Z,14.80
2018-12-12T00:40:00.969Z,14.40
2018-12-12T00:41:00.908Z,14.60
2018-12-12T00:42:00.869Z,14.10
2018-12-12T00:43:00.803Z,14.40
2018-12-12T00:44:00.791Z,14.80
2018-12-12T00:45:00.698Z,14.50
2018-12-12T00:46:00.641Z,14.50
2018-12-12T00:47:00.588Z,15.10
2018-12-12T00:48:00.533Z,15.00
2018-12-12T00:49:00.476Z,14.10
2018-12-12T00:50:00.423Z,14.30
2018-12-12T00:51:00.393Z,14.40
2018-12-12T00:52:00.315Z,15.00
2018-12-12T00:53:00.489Z,14.90
2018-12-12T00:54:00.254Z,14.50
2018-12-12T00:55:00.153Z,13.90
2018-12-12T00:56:00.098Z,14.20
2018-12-12T00:57:00.044Z,15.50
2018-12-12T00:57:59.988Z,13.70
2018-12-12T00:58:59.935Z,14.20
2018-12-12T00:59:59.902Z,14.30
2018-12-12T01:00:59.826Z,14.20
2018-12-12T01:02:00.002Z,14.50
2018-12-12T01:02:59.802Z,14.40
2018-12-12T01:03:59.664Z,14.80
2018-12-12T01:04:59.612Z,14.00
2018-12-12T01:05:59.554Z,14.20
2018-12-12T01:06:59.503Z,13.80
2018-12-12T01:07:59.447Z,14.10
2018-12-12T01:08:59.415Z,13.80
2018-12-12T01:09:59.340Z,14.10
2018-12-12T01:10:59.506Z,14.40
2018-12-12T01:11:59.235Z,13.10
2018-12-12T01:12:59.176Z,13.50
2018-12-12T01:13:59.122Z,13.30
2018-12-12T01:14:59.070Z,14.10
2018-12-12T01:15:59.023Z,14.20
2018-12-12T01:16:58.960Z,14.30
2018-12-12T01:17:58.912Z,14.70
2018-12-12T01:18:58.855Z,15.00
2018-12-12T01:19:58.825Z,14.00
2018-12-12T01:20:58.800Z,13.90
2018-12-12T01:21:58.913Z,13.90
2018-12-12T01:22:58.634Z,14.60
2018-12-12T01:23:58.579Z,14.10
2018-12-12T01:24:58.528Z,13.80
2018-12-12T01:25:58.476Z,14.30
2018-12-12T01:26:58.421Z,14.20
2018-12-12T01:27:58.364Z,14.10
2018-12-12T01:28:58.308Z,14.20
2018-12-12T01:29:58.256Z,14.10
2018-12-12T01:30:58.410Z,14.20
2018-12-12T01:31:58.151Z,13.70
2018-12-12T01:32:58.093Z,14.20
2018-12-12T01:33:58.040Z,13.50
2018-12-12T01:34:57.986Z,13.90
2018-12-12T01:35:57.930Z,13.40
2018-12-12T01:36:57.879Z,13.80
2018-12-12T01:37:57.845Z,14.30
2018-12-12T01:38:57.769Z,14.10
2018-12-12T01:39:57.909Z,14.40
2018-12-12T01:40:57.660Z,14.00
2018-12-12T01:41:57.609Z,13.80
2018-12-12T01:42:57.553Z,12.90
2018-12-12T01:43:57.499Z,14.20
2018-12-12T01:44:57.450Z,13.70
2018-12-12T01:45:57.392Z,13.90
2018-12-12T01:46:57.359Z,13.70
2018-12-12T01:47:57.283Z,14.10
2018-12-12T01:48:57.420Z,14.00
2018-12-12T01:49:57.173Z,14.00
2018-12-12T01:50:57.119Z,14.30
2018-12-12T01:51:57.066Z,14.40
2018-12-12T01:52:57.011Z,14.20
2018-12-12T01:53:56.960Z,14.00
2018-12-12T01:54:56.905Z,13.80
2018-12-12T01:55:56.914Z,12.90
2018-12-12T01:56:56.795Z,13.80
2018-12-12T01:57:56.925Z,13.90
2018-12-12T01:58:56.689Z,13.50
2018-12-12T01:59:56.636Z,13.60
2018-12-12T02:00:56.580Z,13.30
2018-12-12T02:01:56.525Z,13.90
2018-12-12T02:02:56.470Z,13.80
2018-12-12T02:03:56.417Z,13.90
2018-12-12T02:04:56.363Z,13.50
2018-12-12T02:05:56.310Z,14.10
2018-12-12T02:06:56.432Z,14.70
2018-12-12T02:07:56.205Z,14.70
2018-12-12T02:08:56.150Z,14.70
2018-12-12T02:09:56.096Z,14.00
2018-12-12T02:10:56.042Z,15.30
2018-12-12T02:11:55.986Z,14.00
2018-12-12T02:12:55.931Z,13.70
2018-12-12T02:13:55.877Z,14.40
2018-12-12T02:14:55.826Z,14.90
2018-12-12T02:15:55.931Z,13.80
2018-12-12T02:16:55.716Z,15.00
2018-12-12T02:17:55.661Z,14.70
2018-12-12T02:18:55.615Z,14.60
2018-12-12T02:19:55.559Z,14.20
2018-12-12T02:20:55.501Z,15.80
2018-12-12T02:21:55.445Z,15.10
2018-12-12T02:22:55.391Z,14.80
2018-12-12T02:23:55.337Z,14.10
2018-12-12T02:24:55.444Z,14.50
2018-12-12T02:25:55.231Z,14.30
2018-12-12T02:26:55.175Z,14.90
2018-12-12T02:27:55.120Z,14.40
2018-12-12T02:28:55.065Z,14.40
2018-12-12T02:29:55.013Z,14.00
2018-12-12T02:30:54.986Z,13.60
2018-12-12T02:31:54.905Z,14.60
2018-12-12T02:32:54.850Z,14.50
2018-12-12T02:33:54.935Z,15.00
2018-12-12T02:34:54.749Z,15.00
2018-12-12T02:35:54.687Z,14.60
2018-12-12T02:36:54.644Z,15.30
2018-12-12T02:37:54.582Z,14.60
2018-12-12T02:38:54.536Z,14.80
2018-12-12T02:39:54.471Z,14.70
2018-12-12T02:40:54.419Z,15.20
2018-12-12T02:41:54.367Z,15.40
2018-12-12T02:42:54.548Z,15.60
2018-12-12T02:43:54.266Z,14.60
2018-12-12T02:44:54.291Z,15.20
2018-12-12T02:45:54.147Z,15.00
2018-12-12T02:46:54.094Z,14.10
2018-12-12T02:47:54.041Z,14.90
2018-12-12T02:48:53.984Z,14.50
2018-12-12T02:49:53.933Z,14.50
2018-12-12T02:50:53.877Z,14.40
2018-12-12T02:51:54.050Z,14.10
2018-12-12T02:52:53.769Z,14.70
2018-12-12T02:53:53.714Z,13.00
2018-12-12T02:54:53.660Z,13.80
2018-12-12T02:55:53.605Z,13.40
2018-12-12T02:56:53.552Z,13.50
2018-12-12T02:57:53.497Z,14.40
2018-12-12T02:58:53.443Z,14.10
2018-12-12T02:59:53.388Z,14.40
2018-12-12T03:00:53.326Z,14.60
2018-12-12T03:01:53.282Z,14.90
2018-12-12T03:02:53.460Z,14.50
2018-12-12T03:03:53.174Z,14.90
2018-12-12T03:04:53.118Z,14.70
2018-12-12T03:05:53.063Z,14.30
2018-12-12T03:06:53.012Z,14.40
2018-12-12T03:07:52.956Z,14.20
2018-12-12T03:08:52.905Z,14.90
2018-12-12T03:09:52.855Z,15.10
2018-12-12T03:10:52.796Z,15.00
2018-12-12T03:11:52.969Z,14.40
2018-12-12T03:12:52.687Z,14.70
2018-12-12T03:13:52.632Z,14.60
2018-12-12T03:14:52.578Z,14.70
2018-12-12T03:15:52.522Z,14.80
2018-12-12T03:16:52.469Z,15.10
2018-12-12T03:17:52.416Z,14.90
2018-12-12T03:18:52.366Z,15.60
2018-12-12T03:19:52.308Z,15.10
2018-12-12T03:20:52.455Z,14.60
2018-12-12T03:21:52.203Z,15.40
2018-12-12T03:22:52.150Z,14.70
2018-12-12T03:23:52.096Z,15.60
2018-12-12T03:24:52.037Z,14.80
2018-12-12T03:25:51.980Z,15.20
2018-12-12T03:26:51.928Z,15.60
2018-12-12T03:27:51.875Z,15.10
2018-12-12T03:28:51.824Z,15.80
2018-12-12T03:29:51.980Z,16.60
2018-12-12T03:30:51.713Z,16.00
2018-12-12T03:31:51.661Z,15.40
2018-12-12T03:32:51.606Z,16.40
2018-12-12T03:33:51.551Z,16.40
2018-12-12T03:34:51.497Z,16.10
2018-12-12T03:35:51.521Z,15.50
2018-12-12T03:36:51.393Z,15.50
2018-12-12T03:37:51.334Z,15.50
2018-12-12T03:38:51.483Z,15.20
2018-12-12T03:39:51.228Z,15.60
2018-12-12T03:40:51.172Z,15.50
2018-12-12T03:41:51.118Z,15.90
2018-12-12T03:42:51.064Z,14.50
2018-12-12T03:43:51.015Z,15.30
2018-12-12T03:44:50.962Z,15.50
2018-12-12T03:45:50.901Z,15.10
2018-12-12T03:46:50.849Z,14.40
2018-12-12T03:47:50.988Z,15.20
2018-12-12T03:48:50.739Z,15.50
2018-12-12T03:49:50.688Z,15.20
2018-12-12T03:50:50.632Z,15.00
2018-12-12T03:51:50.578Z,14.50
2018-12-12T03:52:50.522Z,14.50
2018-12-12T03:53:50.470Z,14.40
2018-12-12T03:54:50.445Z,14.60
2018-12-12T03:55:50.370Z,15.70
2018-12-12T03:56:50.492Z,15.80
2018-12-12T03:57:50.252Z,15.60
2018-12-12T03:58:50.201Z,15.20
2018-12-12T03:59:50.154Z,14.70
2018-12-12T04:00:50.091Z,15.70
2018-12-12T04:01:50.036Z,16.40
2018-12-12T04:02:49.985Z,15.10
2018-12-12T04:03:49.937Z,14.70
2018-12-12T04:04:49.875Z,15.20
2018-12-12T04:05:49.989Z,14.00
2018-12-12T04:06:49.764Z,15.10
2018-12-12T04:07:49.713Z,16.10
2018-12-12T04:08:49.659Z,15.30
2018-12-12T04:09:49.605Z,15.30
2018-12-12T04:10:49.552Z,15.60
2018-12-12T04:11:49.495Z,14.80
2018-12-12T04:12:49.447Z,15.00
2018-12-12T04:13:49.392Z,14.80
2018-12-12T04:14:49.482Z,15.40
2018-12-12T04:15:49.281Z,15.70
2018-12-12T04:16:49.226Z,16.70
2018-12-12T04:17:49.174Z,16.10
2018-12-12T04:18:49.118Z,16.70
2018-12-12T04:19:49.065Z,16.10
2018-12-12T04:20:49.009Z,15.40
2018-12-12T04:21:48.962Z,15.90
2018-12-12T04:22:48.905Z,16.80
2018-12-12T04:23:48.997Z,16.70
2018-12-12T04:24:48.794Z,16.20
2018-12-12T04:25:48.740Z,15.60
2018-12-12T04:26:48.686Z,16.00
2018-12-12T04:27:48.632Z,15.30
2018-12-12T04:28:48.577Z,16.00
2018-12-12T04:29:48.520Z,16.50
2018-12-12T04:30:48.498Z,15.90
2018-12-12T04:31:48.415Z,16.00
2018-12-12T04:32:48.596Z,15.70
2018-12-12T04:33:48.308Z,15.40
2018-12-12T04:34:48.253Z,17.00
2018-12-12T04:35:48.202Z,16.40
2018-12-12T04:36:48.145Z,17.40
2018-12-12T04:37:48.090Z,15.90
2018-12-12T04:38:48.039Z,16.90
2018-12-12T04:39:48.009Z,17.30
2018-12-12T04:40:47.928Z,16.50
2018-12-12T04:41:48.116Z,16.40
2018-12-12T04:42:47.821Z,16.90
2018-12-12T04:43:47.767Z,16.40
2018-12-12T04:44:47.712Z,16.20
2018-12-12T04:45:47.659Z,16.10
2018-12-12T04:46:47.609Z,16.60
2018-12-12T04:47:47.551Z,16.70
2018-12-12T04:48:47.521Z,16.30
2018-12-12T04:49:47.443Z,16.40
2018-12-12T04:50:47.604Z,16.40
2018-12-12T04:51:47.336Z,15.40
2018-12-12T04:52:47.289Z,16.00
2018-12-12T04:53:47.227Z,16.20
2018-12-12T04:54:47.174Z,16.00
2018-12-12T04:55:47.118Z,15.80
2018-12-12T04:56:47.064Z,16.20
2018-12-12T04:57:47.038Z,16.50
2018-12-12T04:58:46.957Z,15.50
2018-12-12T04:59:47.105Z,15.90
2018-12-12T05:00:46.852Z,16.40
2018-12-12T05:01:46.794Z,16.50
2018-12-12T05:02:46.751Z,17.10
2018-12-12T05:03:46.687Z,17.10
2018-12-12T05:04:46.633Z,17.80
2018-12-12T05:05:46.578Z,16.80
2018-12-12T05:06:46.550Z,15.50
2018-12-12T05:07:46.471Z,16.30
2018-12-12T05:08:46.617Z,16.20
2018-12-12T05:09:46.364Z,17.10
2018-12-12T05:10:46.307Z,16.80
2018-12-12T05:11:46.262Z,16.70
2018-12-12T05:12:46.201Z,16.40
2018-12-12T05:13:46.147Z,15.80
2018-12-12T05:14:46.093Z,16.50
2018-12-12T05:15:46.063Z,16.60
2018-12-12T05:16:45.985Z,16.50
2018-12-12T05:17:46.120Z,15.70
2018-12-12T05:18:45.880Z,16.40
2018-12-12T05:19:45.824Z,17.00
2018-12-12T05:20:45.770Z,17.50
2018-12-12T05:21:45.717Z,17.60
2018-12-12T05:22:45.661Z,16.00
2018-12-12T05:23:45.605Z,17.10
2018-12-12T05:24:45.579Z,16.60
2018-12-12T05:25:45.499Z,17.80
2018-12-12T05:26:45.613Z,17.60
2018-12-12T05:27:45.390Z,18.30
2018-12-12T05:28:45.334Z,17.40
2018-12-12T05:29:45.327Z,17.50
2018-12-12T05:30:45.228Z,17.90
2018-12-12T05:31:45.177Z,17.70
2018-12-12T05:32:45.120Z,17.70
2018-12-12T05:33:45.066Z,18.20
2018-12-12T05:34:45.012Z,18.50
2018-12-12T05:35:45.131Z,17.90
2018-12-12T05:36:44.902Z,17.30
2018-12-12T05:37:50.765Z,18.20
2018-12-12T05:38:44.795Z,17.30
2018-12-12T05:39:44.745Z,17.70
2018-12-12T05:40:44.785Z,18.30
2018-12-12T05:41:44.635Z,17.80
2018-12-12T05:42:44.608Z,17.80
2018-12-12T05:43:44.526Z,18.40
2018-12-12T05:44:44.621Z,18.50
2018-12-12T05:45:44.420Z,20.50
2018-12-12T05:46:44.364Z,19.60
2018-12-12T05:47:44.312Z,19.20
2018-12-12T05:48:44.255Z,20.00
2018-12-12T05:49:44.202Z,19.40
2018-12-12T05:50:44.148Z,18.80
2018-12-12T05:51:44.119Z,18.90
2018-12-12T05:52:44.043Z,18.80
2018-12-12T05:53:44.144Z,18.10
2018-12-12T05:54:43.932Z,17.20
2018-12-12T05:55:43.879Z,18.50
2018-12-12T05:56:43.825Z,18.60
2018-12-12T05:57:43.769Z,18.70
2018-12-12T05:58:43.714Z,19.00
2018-12-12T05:59:43.661Z,19.60
2018-12-12T06:00:43.634Z,18.90
2018-12-12T06:01:43.554Z,18.60
2018-12-12T06:02:43.727Z,18.60
2018-12-12T06:03:43.446Z,20.00
2018-12-12T06:04:43.389Z,17.80
2018-12-12T06:05:43.343Z,18.70
2018-12-12T06:06:43.286Z,18.80
2018-12-12T06:07:43.406Z,18.50
2018-12-12T06:08:43.176Z,18.90
2018-12-12T06:09:43.148Z,18.10
2018-12-12T06:10:43.068Z,18.70
2018-12-12T06:11:43.240Z,18.80
2018-12-12T06:12:42.960Z,18.30
2018-12-12T06:13:42.906Z,18.20
2018-12-12T06:14:42.854Z,18.30
2018-12-12T06:15:42.796Z,19.00
2018-12-12T06:16:42.740Z,18.20
2018-12-12T06:17:42.691Z,18.90
2018-12-12T06:18:42.662Z,19.20
2018-12-12T06:19:42.582Z,18.30
2018-12-12T06:20:42.756Z,19.40
2018-12-12T06:21:42.472Z,19.30
2018-12-12T06:22:42.417Z,19.60
2018-12-12T06:23:42.369Z,19.20
2018-12-12T06:24:42.308Z,19.70
2018-12-12T06:25:42.256Z,20.10
2018-12-12T06:26:42.201Z,18.40
2018-12-12T06:27:42.183Z,19.00
2018-12-12T06:28:42.088Z,20.50
2018-12-12T06:29:42.243Z,19.70
2018-12-12T06:30:41.996Z,19.70
2018-12-12T06:31:41.930Z,18.10
2018-12-12T06:32:41.875Z,18.70
2018-12-12T06:33:41.822Z,19.60
2018-12-12T06:34:41.769Z,19.60
2018-12-12T06:35:41.712Z,19.70
2018-12-12T06:36:41.657Z,20.00
2018-12-12T06:37:41.613Z,19.70
2018-12-12T06:38:41.560Z,20.10
2018-12-12T06:39:41.518Z,18.90
2018-12-12T06:40:41.445Z,18.90
2018-12-12T06:41:41.389Z,19.70
2018-12-12T06:42:41.335Z,20.00
2018-12-12T06:43:41.282Z,19.80
2018-12-12T06:44:41.230Z,20.30
2018-12-12T06:45:41.178Z,19.30
2018-12-12T06:46:41.121Z,19.20
2018-12-12T06:47:41.070Z,19.90
2018-12-12T06:48:41.018Z,18.80
2018-12-12T06:49:40.957Z,20.60
2018-12-12T06:50:40.901Z,19.80
2018-12-12T06:51:40.856Z,19.50
2018-12-12T06:52:40.812Z,19.80
2018-12-12T06:53:40.747Z,20.40
2018-12-12T06:54:40.708Z,19.60
2018-12-12T06:55:40.782Z,20.20
2018-12-12T06:56:40.693Z,20.20
2018-12-12T06:57:40.529Z,20.70
2018-12-12T06:58:40.476Z,20.70
2018-12-12T06:59:40.421Z,19.80
2018-12-12T07:00:40.369Z,19.70
2018-12-12T07:01:40.320Z,19.30
2018-12-12T07:02:40.261Z,19.40
2018-12-12T07:03:40.203Z,19.80
2018-12-12T07:04:40.151Z,20.60
2018-12-12T07:05:40.100Z,20.40
2018-12-12T07:06:40.045Z,20.00
2018-12-12T07:07:39.989Z,19.30
2018-12-12T07:08:39.934Z,19.90
2018-12-12T07:09:39.881Z,19.60
2018-12-12T07:10:39.833Z,21.30
2018-12-12T07:11:39.775Z,21.00
2018-12-12T07:12:39.719Z,21.00
2018-12-12T07:13:39.671Z,20.10
2018-12-12T07:14:39.622Z,20.10
2018-12-12T07:15:39.570Z,20.10
2018-12-12T07:16:39.511Z,19.70
2018-12-12T07:17:39.448Z,19.10
2018-12-12T07:18:39.395Z,20.30
2018-12-12T07:19:39.340Z,20.90
2018-12-12T07:20:39.286Z,20.40
2018-12-12T07:21:39.242Z,19.10
2018-12-12T07:22:39.180Z,20.10
2018-12-12T07:23:39.126Z,19.60
2018-12-12T07:24:39.069Z,19.80
2018-12-12T07:25:39.011Z,20.10
2018-12-12T07:26:38.962Z,20.00
2018-12-12T07:27:38.939Z,20.40
2018-12-12T07:28:38.857Z,19.80
2018-12-12T07:29:38.795Z,21.50
2018-12-12T07:30:38.741Z,20.30
2018-12-12T07:31:38.692Z,20.30
2018-12-12T07:32:38.639Z,20.20
2018-12-12T07:33:38.599Z,20.10
2018-12-12T07:34:38.531Z,18.50
2018-12-12T07:35:38.476Z,21.60
2018-12-12T07:36:38.421Z,19.90
2018-12-12T07:37:38.375Z,21.00
2018-12-12T07:38:38.315Z,21.10
2018-12-12T07:39:38.272Z,20.60
2018-12-12T07:40:38.200Z,20.40
2018-12-12T07:41:38.153Z,19.50
2018-12-12T07:42:38.099Z,19.90
2018-12-12T07:43:38.045Z,19.50
2018-12-12T07:44:38.005Z,19.80
2018-12-12T07:45:37.936Z,20.20
2018-12-12T07:46:37.882Z,20.20
2018-12-12T07:47:38.511Z,20.20
2018-12-12T07:48:37.923Z,19.70
2018-12-12T07:49:37.716Z,19.60
2018-12-12T07:50:37.660Z,19.60
2018-12-12T07:51:37.618Z,19.40
2018-12-12T07:52:37.575Z,19.70
2018-12-12T07:53:37.507Z,17.90
2018-12-12T07:54:37.465Z,19.60
2018-12-12T07:55:37.404Z,19.00
2018-12-12T07:56:37.371Z,19.10
2018-12-12T07:57:37.309Z,20.30
2018-12-12T07:58:37.266Z,19.20
2018-12-12T07:59:37.173Z,18.80
2018-12-12T08:00:37.120Z,20.10
2018-12-12T08:01:37.130Z,20.00
2018-12-12T08:02:37.034Z,19.00
2018-12-12T08:03:36.961Z,20.20
2018-12-12T08:04:36.927Z,19.40
2018-12-12T08:05:36.862Z,18.70
2018-12-12T08:06:36.805Z,19.50
2018-12-12T08:07:36.767Z,18.60
2018-12-12T08:08:36.701Z,18.80
2018-12-12T08:09:36.638Z,19.20
2018-12-12T08:10:36.592Z,18.90
2018-12-12T08:11:36.529Z,18.40
2018-12-12T08:12:36.505Z,19.30
2018-12-12T08:13:36.440Z,19.40
2018-12-12T08:14:36.368Z,18.70
2018-12-12T08:15:36.342Z,18.70
2018-12-12T08:16:36.275Z,18.80
2018-12-12T08:17:36.212Z,18.90
2018-12-12T08:18:36.159Z,18.40
2018-12-12T08:19:36.098Z,18.60
2018-12-12T08:20:36.044Z,17.50
2018-12-12T08:21:35.998Z,16.70
2018-12-12T08:22:35.947Z,18.10
2018-12-12T08:23:35.901Z,19.10
2018-12-12T08:24:35.836Z,18.90
2018-12-12T08:25:35.787Z,18.10
2018-12-12T08:26:35.730Z,19.20
2018-12-12T08:27:35.689Z,19.70
2018-12-12T08:28:35.618Z,18.50
2018-12-12T08:29:35.556Z,19.40
2018-12-12T08:30:35.540Z,18.70
2018-12-12T08:31:37.441Z,19.60
2018-12-12T08:32:35.418Z,18.90
2018-12-12T08:33:35.353Z,18.30
2018-12-12T08:34:35.315Z,18.10
2018-12-12T08:35:35.250Z,18.50
2018-12-12T08:36:35.220Z,19.10
2018-12-12T08:37:35.139Z,19.00
2018-12-12T08:38:35.088Z,19.60
2018-12-12T08:39:35.040Z,19.10
2018-12-12T08:40:34.972Z,19.20
2018-12-12T08:41:34.922Z,19.70
2018-12-12T08:42:34.879Z,19.00
2018-12-12T08:43:34.816Z,19.10
2018-12-12T08:44:34.758Z,18.80
2018-12-12T08:45:34.703Z,19.20
2018-12-12T08:46:34.668Z,18.60
2018-12-12T08:47:34.618Z,18.20
2018-12-12T08:48:34.554Z,18.30
2018-12-12T08:49:34.514Z,19.60
2018-12-12T08:50:34.456Z,18.60
2018-12-12T08:51:34.388Z,18.20
2018-12-12T08:52:34.348Z,18.70
2018-12-12T08:53:34.280Z,17.30
2018-12-12T08:54:34.234Z,18.00
2018-12-12T08:55:34.194Z,18.60
2018-12-12T08:56:34.138Z,18.30
2018-12-12T08:57:34.078Z,18.80
2018-12-12T08:58:34.029Z,18.30
2018-12-12T08:59:33.974Z,18.60
2018-12-12T09:00:33.929Z,18.50
2018-12-12T09:01:33.857Z,18.60
2018-12-12T09:02:33.815Z,18.60
2018-12-12T09:03:33.760Z,19.10
2018-12-12T09:04:33.720Z,18.10
2018-12-12T09:05:33.642Z,18.70
2018-12-12T09:06:33.593Z,19.50
2018-12-12T09:07:33.556Z,19.70
2018-12-12T09:08:33.494Z,19.50
2018-12-12T09:09:33.455Z,20.50
2018-12-12T09:10:33.375Z,20.60
2018-12-12T09:11:33.338Z,20.10
2018-12-12T09:12:33.288Z,20.30
2018-12-12T09:13:33.236Z,20.70
2018-12-12T09:14:33.180Z,19.10
2018-12-12T09:15:33.110Z,19.30
2018-12-12T09:16:33.072Z,20.20
2018-12-12T09:17:33.025Z,18.40
2018-12-12T09:18:32.961Z,17.70
2018-12-12T09:19:32.909Z,18.80
2018-12-12T09:20:32.863Z,19.30
2018-12-12T09:21:32.798Z,20.40
2018-12-12T09:22:32.769Z,20.50
2018-12-12T09:23:32.682Z,18.70
2018-12-12T09:24:32.625Z,19.50
2018-12-12T09:25:32.573Z,20.60
2018-12-12T09:26:32.519Z,20.80
2018-12-12T09:27:32.508Z,19.70
2018-12-12T09:28:32.413Z,19.70
2018-12-12T09:29:32.379Z,19.40
2018-12-12T09:30:32.308Z,20.60
2018-12-12T09:31:32.257Z,20.40
2018-12-12T09:32:32.210Z,21.10
2018-12-12T09:33:32.150Z,20.90
2018-12-12T09:34:32.100Z,25.60
2018-12-12T09:35:32.065Z,26.20
2018-12-12T09:36:32.018Z,20.00
2018-12-12T09:37:31.951Z,18.40
2018-12-12T09:38:31.895Z,20.60
2018-12-12T09:39:31.847Z,23.20
2018-12-12T09:40:31.798Z,36.70
2018-12-12T09:41:31.755Z,33.00
2018-12-12T09:42:31.695Z,85.80
2018-12-12T09:43:32.844Z,55.00
2018-12-12T09:44:31.593Z,36.10
2018-12-12T09:45:31.518Z,30.30
2018-12-12T09:46:31.478Z,23.80
2018-12-12T09:47:31.426Z,19.10
2018-12-12T09:48:31.372Z,18.50
2018-12-12T09:49:31.319Z,18.40
2018-12-12T09:50:31.264Z,22.60
2018-12-12T09:51:31.204Z,18.30
2018-12-12T09:52:31.170Z,21.20
2018-12-12T09:53:31.113Z,23.60
2018-12-12T09:54:31.053Z,21.30
2018-12-12T09:55:31.018Z,20.90
2018-12-12T09:56:30.932Z,20.00
2018-12-12T09:57:30.879Z,25.00
2018-12-12T09:58:30.846Z,21.20
2018-12-12T09:59:30.774Z,33.10
2018-12-12T10:00:30.720Z,27.30
2018-12-12T10:01:30.673Z,22.00
2018-12-12T10:02:30.613Z,19.40
2018-12-12T10:03:31.298Z,18.50
2018-12-12T10:04:30.509Z,19.30
2018-12-12T10:05:30.453Z,20.00
2018-12-12T10:06:30.402Z,19.20
2018-12-12T10:07:30.349Z,20.70
2018-12-12T10:08:30.298Z,19.60
2018-12-12T10:09:30.244Z,19.60
2018-12-12T10:10:30.191Z,19.40
2018-12-12T10:11:30.136Z,19.00
2018-12-12T10:12:30.085Z,20.10
2018-12-12T10:13:30.031Z,19.70
2018-12-12T10:14:29.979Z,20.70
2018-12-12T10:15:29.926Z,21.90
2018-12-12T10:16:29.871Z,18.90
2018-12-12T10:17:29.818Z,24.50
2018-12-12T10:18:29.771Z,19.90
2018-12-12T10:19:29.721Z,20.40
2018-12-12T10:20:29.664Z,22.00
2018-12-12T10:21:29.609Z,21.30
2018-12-12T10:22:29.557Z,19.40
2018-12-12T10:23:29.520Z,19.50
2018-12-12T10:24:29.448Z,20.40
2018-12-12T10:25:29.415Z,20.30
2018-12-12T10:26:29.350Z,19.80
2018-12-12T10:27:29.450Z,20.70
2018-12-12T10:28:29.233Z,19.40
2018-12-12T10:29:29.273Z,20.00
2018-12-12T10:30:29.132Z,20.20
2018-12-12T10:31:29.103Z,21.00
2018-12-12T10:32:29.029Z,19.80
2018-12-12T10:33:28.984Z,21.80
2018-12-12T10:34:29.036Z,21.50
2018-12-12T10:35:28.891Z,19.50
2018-12-12T10:36:28.868Z,21.00
2018-12-12T10:37:28.764Z,20.10
2018-12-12T10:38:28.711Z,20.50
2018-12-12T10:39:28.663Z,19.80
2018-12-12T10:40:28.612Z,21.20
2018-12-12T10:41:28.550Z,20.50
2018-12-12T10:42:28.527Z,19.60
2018-12-12T10:43:29.499Z,19.60
2018-12-12T10:44:28.565Z,19.20
2018-12-12T10:45:28.565Z,17.80
2018-12-12T10:46:28.278Z,16.50
2018-12-12T10:47:28.270Z,17.90
2018-12-12T10:48:29.068Z,17.90
2018-12-12T10:49:28.143Z,19.10
2018-12-12T10:50:28.079Z,18.40
2018-12-12T10:51:28.028Z,18.30
2018-12-12T10:52:27.999Z,17.80
2018-12-12T10:53:38.835Z,17.20
2018-12-12T10:54:27.892Z,17.10
2018-12-12T10:55:27.837Z,17.20
2018-12-12T10:56:27.770Z,17.10
2018-12-12T10:57:27.738Z,19.10
2018-12-12T10:58:28.681Z,18.10
2018-12-12T10:59:27.607Z,17.50
2018-12-12T11:00:27.546Z,17.10
2018-12-12T11:01:27.513Z,17.40
2018-12-12T11:02:27.593Z,17.70
2018-12-12T11:03:27.422Z,16.80
2018-12-12T11:04:27.815Z,18.80
2018-12-12T11:05:27.472Z,17.90
2018-12-12T11:06:27.247Z,17.90
2018-12-12T11:07:27.216Z,16.40
2018-12-12T11:08:34.029Z,17.60
2018-12-12T11:09:27.096Z,17.50
2018-12-12T11:10:27.020Z,16.30
2018-12-12T11:11:26.978Z,17.20
2018-12-12T11:12:26.910Z,16.10
2018-12-12T11:13:26.878Z,16.00
2018-12-12T11:14:26.843Z,18.20
2018-12-12T11:15:26.758Z,17.30
2018-12-12T11:16:26.726Z,17.20
2018-12-12T11:17:26.659Z,17.60
2018-12-12T11:18:26.600Z,17.50
2018-12-12T11:19:26.556Z,16.90
2018-12-12T11:20:26.495Z,17.30
2018-12-12T11:21:26.441Z,17.20
2018-12-12T11:22:26.388Z,17.30
2018-12-12T11:23:26.337Z,17.70
2018-12-12T11:24:26.297Z,16.90
2018-12-12T11:25:26.230Z,16.30
2018-12-12T11:26:26.206Z,16.40
2018-12-12T11:27:26.126Z,17.00
2018-12-12T11:28:26.085Z,15.80
2018-12-12T11:29:26.031Z,15.40
2018-12-12T11:30:25.970Z,14.60
2018-12-12T11:31:25.915Z,14.80
2018-12-12T11:32:25.863Z,15.50
2018-12-12T11:33:25.810Z,14.60
2018-12-12T11:34:25.760Z,15.90
2018-12-12T11:35:25.710Z,15.50
2018-12-12T11:36:25.654Z,15.20
2018-12-12T11:37:25.604Z,16.10
2018-12-12T11:38:25.552Z,16.20
2018-12-12T11:39:25.497Z,17.00
2018-12-12T11:40:25.445Z,16.50
2018-12-12T11:41:25.424Z,16.70
2018-12-12T11:42:25.337Z,17.10
2018-12-12T11:43:25.302Z,17.70
2018-12-12T11:44:25.232Z,16.60
2018-12-12T11:45:25.178Z,16.80
2018-12-12T11:46:25.127Z,16.10
2018-12-12T11:47:25.076Z,16.30
2018-12-12T11:48:25.026Z,15.50
2018-12-12T11:49:24.975Z,15.60
2018-12-12T11:50:24.941Z,16.10
2018-12-12T11:51:24.865Z,15.50
2018-12-12T11:52:24.817Z,16.30
2018-12-12T11:53:24.763Z,15.80
2018-12-12T11:54:24.725Z,15.60
2018-12-12T11:55:24.655Z,16.00
2018-12-12T11:56:24.618Z,15.80
2018-12-12T11:57:24.566Z,16.40
2018-12-12T11:58:24.498Z,16.90
2018-12-12T11:59:24.453Z,16.90
2018-12-12T12:00:24.392Z,17.10
2018-12-12T12:01:24.347Z,15.30
2018-12-12T12:02:24.328Z,17.80
2018-12-12T12:03:24.257Z,17.30
2018-12-12T12:04:24.187Z,16.60
2018-12-12T12:05:24.137Z,16.90
2018-12-12T12:06:24.082Z,15.30
2018-12-12T12:07:24.031Z,16.50
2018-12-12T12:08:23.977Z,15.70
2018-12-12T12:09:23.928Z,16.30
2018-12-12T12:10:23.867Z,16.60
2018-12-12T12:11:23.815Z,16.00
2018-12-12T12:12:23.760Z,16.70
2018-12-12T12:13:23.716Z,17.70
2018-12-12T12:14:23.657Z,16.70
2018-12-12T12:15:23.605Z,17.10
2018-12-12T12:16:23.551Z,17.40
2018-12-12T12:17:23.500Z,16.00
2018-12-12T12:18:23.456Z,16.40
2018-12-12T12:19:23.393Z,16.10
2018-12-12T12:20:23.341Z,16.40
2018-12-12T12:21:23.299Z,17.40
2018-12-12T12:22:23.236Z,16.30
2018-12-12T12:23:23.185Z,16.40
2018-12-12T12:24:24.325Z,16.40
2018-12-12T12:25:23.092Z,17.40
2018-12-12T12:26:23.026Z,17.20
2018-12-12T12:27:22.977Z,17.30
2018-12-12T12:28:22.935Z,16.30
2018-12-12T12:29:22.900Z,17.20
2018-12-12T12:30:22.839Z,17.00
2018-12-12T12:31:22.805Z,17.20
2018-12-12T12:32:22.737Z,17.30
2018-12-12T12:33:22.684Z,17.40
2018-12-12T12:34:22.648Z,17.70
2018-12-12T12:35:22.566Z,17.20
2018-12-12T12:36:22.538Z,16.90
2018-12-12T12:37:22.479Z,17.20
2018-12-12T12:38:22.408Z,15.30
2018-12-12T12:39:22.351Z,16.50
2018-12-12T12:40:22.369Z,16.70
2018-12-12T12:41:22.231Z,15.40
2018-12-12T12:42:22.185Z,15.00
2018-12-12T12:43:22.161Z,14.10
2018-12-12T12:44:22.097Z,14.70
2018-12-12T12:45:22.072Z,15.30
2018-12-12T12:46:23.061Z,16.10
2018-12-12T12:47:21.986Z,15.50
2018-12-12T12:48:21.958Z,15.60
2018-12-12T12:49:21.873Z,14.90
2018-12-12T12:50:21.788Z,16.20
2018-12-12T12:51:21.748Z,15.00